Hauptseite
METAR-TAF:

METAR-TAF

Flughäfen :

Schaffen

Diest, Belgien

Breite: 51-00N, Länge: 005-04E, Höhe: 30 m

Beobachtung

Neuester Wetterbericht von vor 32 Minuten, um 03:25 UTC
Wind 3 kt aus Süd
Temperatur 12°C
Luftfeuchtigkeit 100%
Luftdruck 1027 hPa
Sichtweite 10 km oder mehr

METAR: EBDT 130325Z AUTO 19003KT 9999 SCT220/// 12/12 Q1027 BLU

Zeit: 05:57 (03:57 UTC)

Prognose

Neuester Wetterbericht von vor 16 Stunden und 16 Minuten, um 11:41 UTC
Gültige Prognose vom 12 um 13 UTC bis 12 um 22 UTC
Wind 10 kt aus West/Südwest
Sichtweite 10 km oder mehr
Leicht bewölkt in der Höhe von 3000 ft
Durchbrochene Bewölkung in der Höhe von 24000 ft
Übergehend zu
vom 12 um 18 UTC bis 12 um 20 UTC
Wind 6 kt aus Südwest
Durchbrochene Bewölkung in der Höhe von 25000 ft

TAF: EBDT 121141Z 1213/1222 24010KT 9999 FEW030 BKN240 BECMG 1218/1220 23006KT BKN250

Wetterbeobachtungen und Prognosen von mehr als 4000 Flughäfen (METAR und TAF Bericht).

Die verfügbaren Stationen werden durch gelbe und rote Markierungen auf der Karte dargestellt.

Führen Sie die Maus auf sie, um den Namen der Station zu sehen.

Darauf klicken, um die Beobachtung von Wetterbeobachtungen und Prognosen zu sehen.

Um die Karte zu ändern : klicken Sie auf den grünen Tasten mit einem schwarzen Kreuz Zum Vergrößern, auf den grünen Button mit einem Gedankenstrich zu verkleinern, oder auf die grünen Pfeile für benachbarte Karten.


METAR-TAF: